Terminal Aerodrome Forecast
Issued by NWS Jacksonville, FL

Home | Current Version | Previous Version | Text Only | Print | Product List | Glossary On
Versions: 1 2 3 4 5 6 7 8 9 10 11 12 13
000
FTUS42 KJAX 222300
TAFSSI
TAF
KSSI 222320Z 2300/2324 15007KT P6SM FEW050
     FM230300 20005KT P6SM FEW050
     FM231200 29005KT P6SM FEW035=

USA.gov is the U.S. government's official web portal to all federal, state and local government web resources and services.